sensor_id;sensor_type;location;lat;lon;timestamp;pressure;altitude;pressure_sealevel;temperature;humidity
17072;BME280;7731;50.720;6.912;2023-04-23T00:54:58;99293.44;;;11.38;100.00
17072;BME280;7731;50.720;6.912;2023-04-23T01:00:41;99282.69;;;10.93;100.00
17072;BME280;7731;50.720;6.912;2023-04-23T01:03:15;99282.13;;;11.28;100.00
17072;BME280;7731;50.720;6.912;2023-04-23T01:05:50;99280.69;;;11.23;100.00
17072;BME280;7731;50.720;6.912;2023-04-23T01:08:31;99282.41;;;11.10;100.00
17072;BME280;7731;50.720;6.912;2023-04-23T01:11:05;99286.63;;;10.71;100.00
17072;BME280;7731;50.720;6.912;2023-04-23T01:13:35;99292.75;;;10.56;100.00
17072;BME280;7731;50.720;6.912;2023-04-23T01:16:06;99286.69;;;10.57;100.00
17072;BME280;7731;50.720;6.912;2023-04-23T01:18:37;99297.53;;;10.47;100.00
17072;BME280;7731;50.720;6.912;2023-04-23T01:21:10;99293.13;;;10.49;100.00
17072;BME280;7731;50.720;6.912;2023-04-23T01:23:44;99292.84;;;10.54;100.00
17072;BME280;7731;50.720;6.912;2023-04-23T01:26:14;99287.25;;;10.47;100.00
17072;BME280;7731;50.720;6.912;2023-04-23T01:28:46;99287.63;;;10.41;100.00
17072;BME280;7731;50.720;6.912;2023-04-23T01:31:17;99281.41;;;10.31;100.00
17072;BME280;7731;50.720;6.912;2023-04-23T01:33:49;99286.19;;;10.37;100.00
17072;BME280;7731;50.720;6.912;2023-04-23T01:36:20;99293.25;;;10.19;100.00
17072;BME280;7731;50.720;6.912;2023-04-23T01:38:56;99294.81;;;10.22;100.00
17072;BME280;7731;50.720;6.912;2023-04-23T01:41:27;99296.63;;;10.19;100.00
17072;BME280;7731;50.720;6.912;2023-04-23T01:43:57;99293.63;;;10.13;100.00
17072;BME280;7731;50.720;6.912;2023-04-23T01:46:29;99287.66;;;10.27;100.00
17072;BME280;7731;50.720;6.912;2023-04-23T01:48:59;99281.09;;;10.50;100.00
17072;BME280;7731;50.720;6.912;2023-04-23T01:51:30;99295.81;;;10.75;100.00
17072;BME280;7731;50.720;6.912;2023-04-23T01:54:04;99285.44;;;10.35;100.00
17072;BME280;7731;50.720;6.912;2023-04-23T01:56:34;99293.16;;;10.35;100.00
17072;BME280;7731;50.720;6.912;2023-04-23T01:59:04;99288.66;;;10.39;100.00
17072;BME280;7731;50.720;6.912;2023-04-23T02:01:42;99292.25;;;10.22;100.00
17072;BME280;7731;50.720;6.912;2023-04-23T02:04:15;99281.88;;;10.09;100.00
17072;BME280;7731;50.720;6.912;2023-04-23T02:06:49;99287.66;;;10.27;100.00
17072;BME280;7731;50.720;6.912;2023-04-23T02:09:24;99288.31;;;10.16;100.00
17072;BME280;7731;50.720;6.912;2023-04-23T02:11:54;99286.53;;;10.31;100.00
17072;BME280;7731;50.720;6.912;2023-04-23T02:14:24;99290.75;;;10.74;100.00
17072;BME280;7731;50.720;6.912;2023-04-23T02:16:54;99284.78;;;10.73;100.00
17072;BME280;7731;50.720;6.912;2023-04-23T02:19:25;99275.66;;;10.69;100.00
17072;BME280;7731;50.720;6.912;2023-04-23T02:21:58;99280.81;;;10.82;100.00
17072;BME280;7731;50.720;6.912;2023-04-23T02:24:31;99274.41;;;10.75;100.00
17072;BME280;7731;50.720;6.912;2023-04-23T02:27:01;99274.00;;;10.81;100.00
17072;BME280;7731;50.720;6.912;2023-04-23T02:29:31;99271.75;;;10.76;100.00
17072;BME280;7731;50.720;6.912;2023-04-23T02:32:03;99267.38;;;10.91;100.00
17072;BME280;7731;50.720;6.912;2023-04-23T02:34:33;99264.41;;;11.10;100.00
17072;BME280;7731;50.720;6.912;2023-04-23T02:37:04;99268.13;;;11.06;100.00
17072;BME280;7731;50.720;6.912;2023-04-23T02:39:41;99264.00;;;11.16;100.00
17072;BME280;7731;50.720;6.912;2023-04-23T02:42:12;99265.66;;;11.04;100.00
17072;BME280;7731;50.720;6.912;2023-04-23T02:44:43;99264.91;;;10.89;100.00
17072;BME280;7731;50.720;6.912;2023-04-23T07:58:32;99189.50;;;19.33;58.53
17072;BME280;7731;50.720;6.912;2023-04-23T08:01:02;99198.03;;;18.47;63.51
17072;BME280;7731;50.720;6.912;2023-04-23T08:03:35;99191.88;;;17.56;70.04
17072;BME280;7731;50.720;6.912;2023-04-23T08:06:06;99194.72;;;17.63;67.22
17072;BME280;7731;50.720;6.912;2023-04-23T08:08:36;99193.66;;;17.83;67.66
17072;BME280;7731;50.720;6.912;2023-04-23T08:11:06;99194.84;;;17.34;69.96
17072;BME280;7731;50.720;6.912;2023-04-23T08:13:39;99193.22;;;17.88;67.66
17072;BME280;7731;50.720;6.912;2023-04-23T08:16:10;99182.56;;;17.91;65.51
17072;BME280;7731;50.720;6.912;2023-04-23T08:18:40;99185.19;;;18.09;65.81
17072;BME280;7731;50.720;6.912;2023-04-23T08:21:30;99189.41;;;18.28;64.63
17072;BME280;7731;50.720;6.912;2023-04-23T08:24:01;99182.34;;;18.83;61.61
17072;BME280;7731;50.720;6.912;2023-04-23T08:26:31;99181.13;;;19.48;57.77
17072;BME280;7731;50.720;6.912;2023-04-23T08:29:05;99182.78;;;20.57;51.79
17072;BME280;7731;50.720;6.912;2023-04-23T08:31:37;99166.81;;;20.27;52.27
17072;BME280;7731;50.720;6.912;2023-04-23T08:34:08;99178.00;;;19.78;55.10
17072;BME280;7731;50.720;6.912;2023-04-23T08:36:38;99170.94;;;21.75;47.48
17072;BME280;7731;50.720;6.912;2023-04-23T08:39:08;99167.63;;;20.61;50.58
17072;BME280;7731;50.720;6.912;2023-04-23T08:41:40;99163.53;;;20.75;50.00
17072;BME280;7731;50.720;6.912;2023-04-23T08:44:18;99155.00;;;22.08;45.08
17072;BME280;7731;50.720;6.912;2023-04-23T08:46:53;99151.03;;;21.66;45.78
17072;BME280;7731;50.720;6.912;2023-04-23T08:49:27;99152.81;;;21.97;47.08
17072;BME280;7731;50.720;6.912;2023-04-23T08:52:14;99154.75;;;24.33;40.61
17072;BME280;7731;50.720;6.912;2023-04-23T08:54:49;99148.97;;;24.66;39.17
17072;BME280;7731;50.720;6.912;2023-04-23T08:57:22;99154.41;;;24.15;38.53
17072;BME280;7731;50.720;6.912;2023-04-23T08:59:56;99148.69;;;24.83;38.22
17072;BME280;7731;50.720;6.912;2023-04-23T09:02:27;99160.94;;;23.31;39.78
17072;BME280;7731;50.720;6.912;2023-04-23T09:05:02;99153.16;;;22.40;43.72
17072;BME280;7731;50.720;6.912;2023-04-23T09:07:34;99158.63;;;22.30;42.69
17072;BME280;7731;50.720;6.912;2023-04-23T09:10:09;99149.00;;;22.31;43.17
17072;BME280;7731;50.720;6.912;2023-04-23T09:12:44;99149.88;;;22.76;41.78
17072;BME280;7731;50.720;6.912;2023-04-23T09:15:17;99139.25;;;22.92;41.03
17072;BME280;7731;50.720;6.912;2023-04-23T09:17:47;99143.88;;;23.20;40.77
17072;BME280;7731;50.720;6.912;2023-04-23T09:20:23;99139.22;;;23.37;39.88
17072;BME280;7731;50.720;6.912;2023-04-23T09:22:53;99137.63;;;24.16;38.51
17072;BME280;7731;50.720;6.912;2023-04-23T09:25:23;99134.75;;;22.48;41.78
17072;BME280;7731;50.720;6.912;2023-04-23T09:27:57;99135.63;;;22.93;39.88
17072;BME280;7731;50.720;6.912;2023-04-23T09:30:30;99147.56;;;22.43;39.97
17072;BME280;7731;50.720;6.912;2023-04-23T09:33:04;99130.59;;;22.39;41.49
17072;BME280;7731;50.720;6.912;2023-04-23T09:35:36;99129.66;;;21.85;43.74
17072;BME280;7731;50.720;6.912;2023-04-23T09:38:08;99118.94;;;22.79;41.10
17072;BME280;7731;50.720;6.912;2023-04-23T09:40:38;99119.84;;;21.87;41.28
17072;BME280;7731;50.720;6.912;2023-04-23T09:43:10;99120.69;;;22.49;41.02
17072;BME280;7731;50.720;6.912;2023-04-23T09:45:50;99124.25;;;22.10;40.67
17072;BME280;7731;50.720;6.912;2023-04-23T09:48:39;99121.78;;;21.31;42.44
17072;BME280;7731;50.720;6.912;2023-04-23T09:51:13;99119.25;;;21.06;43.19
17072;BME280;7731;50.720;6.912;2023-04-23T09:53:43;99129.13;;;20.79;44.31
17072;BME280;7731;50.720;6.912;2023-04-23T10:01:11;99113.03;;;21.55;40.90
17072;BME280;7731;50.720;6.912;2023-04-23T13:59:57;98847.81;;;16.98;52.87
17072;BME280;7731;50.720;6.912;2023-04-23T14:02:28;98836.63;;;16.98;53.80
17072;BME280;7731;50.720;6.912;2023-04-23T14:04:59;98831.16;;;17.01;54.55
17072;BME280;7731;50.720;6.912;2023-04-23T14:07:30;98814.84;;;16.90;55.50
17072;BME280;7731;50.720;6.912;2023-04-23T14:10:00;98816.94;;;16.87;55.91
17072;BME280;7731;50.720;6.912;2023-04-23T14:12:30;98811.22;;;16.55;58.02
17072;BME280;7731;50.720;6.912;2023-04-23T14:15:08;98808.38;;;16.76;57.13
17072;BME280;7731;50.720;6.912;2023-04-23T14:17:38;98798.97;;;16.57;58.60
17072;BME280;7731;50.720;6.912;2023-04-23T14:20:12;98794.28;;;16.61;59.05
17072;BME280;7731;50.720;6.912;2023-04-23T14:22:54;98792.00;;;16.76;58.41
17072;BME280;7731;50.720;6.912;2023-04-23T14:25:34;98778.34;;;16.74;57.99
17072;BME280;7731;50.720;6.912;2023-04-23T14:33:12;98767.25;;;17.00;56.40
17072;BME280;7731;50.720;6.912;2023-04-23T14:35:42;98762.28;;;17.06;56.62
17072;BME280;7731;50.720;6.912;2023-04-23T14:40:43;98749.16;;;17.34;55.84
17072;BME280;7731;50.720;6.912;2023-04-23T14:43:17;98743.63;;;17.63;54.75
17072;BME280;7731;50.720;6.912;2023-04-23T14:45:50;98734.47;;;17.51;55.50
17072;BME280;7731;50.720;6.912;2023-04-23T14:48:23;98730.31;;;17.32;55.65
17072;BME280;7731;50.720;6.912;2023-04-23T14:50:53;98732.13;;;17.13;56.16
17072;BME280;7731;50.720;6.912;2023-04-23T14:53:23;98729.00;;;17.02;58.14
17072;BME280;7731;50.720;6.912;2023-04-23T14:55:54;98732.91;;;17.06;59.40
17072;BME280;7731;50.720;6.912;2023-04-23T14:58:24;98724.25;;;16.79;63.71
17072;BME280;7731;50.720;6.912;2023-04-23T15:00:54;98725.84;;;16.90;63.28
17072;BME280;7731;50.720;6.912;2023-04-23T15:03:27;98723.91;;;16.92;60.32
17072;BME280;7731;50.720;6.912;2023-04-23T15:05:57;98720.16;;;16.86;58.24
17072;BME280;7731;50.720;6.912;2023-04-23T15:08:28;98722.94;;;16.75;57.10
17072;BME280;7731;50.720;6.912;2023-04-23T15:10:58;98713.69;;;16.54;55.54
17072;BME280;7731;50.720;6.912;2023-04-23T15:13:51;98712.72;;;16.55;55.16
17072;BME280;7731;50.720;6.912;2023-04-23T15:16:27;98713.66;;;16.72;54.66
17072;BME280;7731;50.720;6.912;2023-04-23T22:43:21;98706.66;;;11.67;100.00
17072;BME280;7731;50.720;6.912;2023-04-23T22:45:52;98702.59;;;11.64;100.00
17072;BME280;7731;50.720;6.912;2023-04-23T22:48:23;98703.63;;;11.61;100.00
17072;BME280;7731;50.720;6.912;2023-04-23T22:50:54;98705.03;;;11.54;100.00
17072;BME280;7731;50.720;6.912;2023-04-23T22:53:25;98707.72;;;11.75;100.00
17072;BME280;7731;50.720;6.912;2023-04-23T22:55:55;98697.78;;;11.71;100.00
17072;BME280;7731;50.720;6.912;2023-04-23T22:58:28;98697.78;;;11.48;100.00
17072;BME280;7731;50.720;6.912;2023-04-23T23:00:58;98694.63;;;11.33;100.00
17072;BME280;7731;50.720;6.912;2023-04-23T23:03:29;98677.31;;;11.24;100.00
17072;BME280;7731;50.720;6.912;2023-04-23T23:06:00;98683.28;;;11.13;100.00
17072;BME280;7731;50.720;6.912;2023-04-23T23:08:33;98678.28;;;11.23;100.00
17072;BME280;7731;50.720;6.912;2023-04-23T23:11:03;98677.66;;;11.19;100.00
